createdAt,value
2023-04-16T00:04:40.561Z,100405.00
2023-04-16T00:09:45.230Z,100402.60
2023-04-16T00:14:49.470Z,100406.60
2023-04-16T00:19:53.400Z,100407.80
2023-04-16T00:24:57.083Z,100407.40
2023-04-16T00:30:02.028Z,100405.80
2023-04-16T00:35:06.292Z,100406.80
2023-04-16T00:40:34.748Z,100410.40
2023-04-16T00:45:38.767Z,100415.20
2023-04-16T00:50:42.479Z,100415.80
2023-04-16T00:55:46.254Z,100412.80
2023-04-16T01:00:49.867Z,100420.80
2023-04-16T01:05:54.001Z,100423.80
2023-04-16T01:10:57.613Z,100420.00
2023-04-16T01:23:18.863Z,100412.80
2023-04-16T01:28:23.186Z,100412.60
2023-04-16T01:33:26.662Z,100410.40
2023-04-16T01:49:08.429Z,100408.60
2023-04-16T01:54:12.293Z,100405.60
2023-04-16T01:59:22.105Z,100411.00
2023-04-16T02:04:25.563Z,100409.20
2023-04-16T02:09:36.216Z,100417.20
2023-04-16T02:14:39.675Z,100414.20
2023-04-16T02:19:49.332Z,100420.60
2023-04-16T02:24:52.791Z,100421.40
2023-04-16T02:30:06.222Z,100419.80
2023-04-16T02:35:09.812Z,100426.20
2023-04-16T02:40:13.273Z,100427.60
2023-04-16T02:45:16.828Z,100425.00
2023-04-16T03:07:10.783Z,100430.60
2023-04-16T03:12:14.236Z,100440.20
2023-04-16T03:17:17.672Z,100442.60
2023-04-16T03:22:21.662Z,100446.00
2023-04-16T03:27:25.044Z,100447.20
2023-04-16T03:32:28.476Z,100450.80
2023-04-16T03:37:32.349Z,100449.00
2023-04-16T03:42:35.953Z,100456.00
2023-04-16T03:47:40.178Z,100460.00
2023-04-16T03:53:34.584Z,100460.20
2023-04-16T03:58:38.213Z,100459.00
2023-04-16T04:03:41.853Z,100467.00
2023-04-16T04:09:16.554Z,100472.80
2023-04-16T04:14:20.084Z,100474.60
2023-04-16T04:21:05.881Z,100481.00
2023-04-16T04:26:09.384Z,100482.80
2023-04-16T04:31:13.352Z,100488.20
2023-04-16T04:36:51.450Z,100486.80
2023-04-16T04:41:54.987Z,100488.80
2023-04-16T04:46:58.437Z,100497.00
2023-04-16T04:52:02.417Z,100498.00
2023-04-16T04:57:05.924Z,100500.20
2023-04-16T05:08:59.957Z,100512.20
2023-04-16T05:15:06.937Z,100512.80
2023-04-16T05:21:03.043Z,100516.60
2023-04-16T05:26:06.424Z,100520.00
2023-04-16T05:55:48.061Z,100537.40
2023-04-16T06:09:11.599Z,100542.00
2023-04-16T06:21:38.134Z,100548.80
2023-04-16T06:26:41.678Z,100555.60
2023-04-16T06:40:54.326Z,100556.00
2023-04-16T06:45:58.010Z,100554.60
2023-04-16T06:51:07.985Z,100556.20
2023-04-16T06:56:11.606Z,100557.00
2023-04-16T07:01:28.627Z,100562.40
2023-04-16T07:06:32.315Z,100561.80
2023-04-16T07:11:36.059Z,100561.20
2023-04-16T07:16:40.767Z,100564.40
2023-04-16T07:21:45.005Z,100573.80
2023-04-16T07:26:48.558Z,100581.00
2023-04-16T07:31:58.754Z,100576.80
2023-04-16T07:37:02.592Z,100585.60
2023-04-16T07:43:22.072Z,100584.20
2023-04-16T07:50:08.230Z,100587.00
2023-04-16T07:55:38.418Z,100594.60
2023-04-16T08:12:16.913Z,100603.80
2023-04-16T08:17:20.856Z,100605.80
2023-04-16T08:22:24.818Z,100606.20
2023-04-16T08:27:28.262Z,100607.80
2023-04-16T08:32:32.000Z,100616.20
2023-04-16T08:37:35.713Z,100620.60
2023-04-16T08:43:10.375Z,100624.20
2023-04-16T08:48:41.801Z,100629.20
2023-04-16T08:54:04.838Z,100635.00
2023-04-16T08:59:10.266Z,100643.60
2023-04-16T09:05:06.534Z,100647.20
2023-04-16T09:19:05.674Z,100658.20
2023-04-16T09:24:10.658Z,100656.20
2023-04-16T09:30:36.491Z,100658.40
2023-04-16T09:35:50.962Z,100664.40
2023-04-16T09:41:09.376Z,100667.20
2023-04-16T09:46:13.592Z,100671.20
2023-04-16T09:52:16.178Z,100678.20
2023-04-16T09:57:25.316Z,100682.80
2023-04-16T10:10:48.669Z,100692.40
2023-04-16T10:16:28.736Z,100702.60
2023-04-16T10:50:58.822Z,100715.60
2023-04-16T10:56:06.075Z,100718.60
2023-04-16T11:01:14.926Z,100724.60
2023-04-16T11:07:44.428Z,100728.60
2023-04-16T11:12:51.108Z,100731.40
2023-04-16T11:18:51.136Z,100736.40
2023-04-16T11:40:55.406Z,100740.80
2023-04-16T11:46:20.086Z,100752.40
2023-04-16T11:51:30.276Z,100752.40
2023-04-16T11:56:54.066Z,100756.20
2023-04-16T12:01:58.107Z,100764.60
2023-04-16T12:07:15.536Z,100769.40
2023-04-16T12:12:32.092Z,100770.20
2023-04-16T12:17:38.632Z,100777.80
2023-04-16T12:31:20.760Z,100784.20
2023-04-16T12:36:25.095Z,100785.40
2023-04-16T12:48:58.001Z,100784.60
2023-04-16T12:54:04.345Z,100780.80
2023-04-16T13:08:02.723Z,100785.00
2023-04-16T13:13:06.802Z,100788.80
2023-04-16T13:18:23.433Z,100781.00
2023-04-16T13:23:27.529Z,100783.60
2023-04-16T13:28:31.687Z,100781.60
2023-04-16T13:33:35.650Z,100778.80
2023-04-16T13:54:36.808Z,100788.20
2023-04-16T13:59:41.938Z,100785.40
2023-04-16T14:04:46.563Z,100790.80
2023-04-16T14:09:50.406Z,100793.00
2023-04-16T14:15:04.878Z,100790.60
2023-04-16T14:20:10.212Z,100794.80
2023-04-16T14:25:17.228Z,100788.80
2023-04-16T14:30:21.312Z,100793.40
2023-04-16T14:35:28.143Z,100793.80
2023-04-16T14:40:32.649Z,100793.00
2023-04-16T14:45:39.795Z,100794.40
2023-04-16T14:50:44.698Z,100796.80
2023-04-16T14:56:13.994Z,100802.80
2023-04-16T15:01:17.875Z,100801.80
2023-04-16T15:06:22.379Z,100810.20
2023-04-16T15:11:28.674Z,100816.60
2023-04-16T15:16:32.459Z,100813.40
2023-04-16T15:21:38.574Z,100812.20
2023-04-16T15:26:49.511Z,100814.20
2023-04-16T15:38:55.286Z,100824.00
2023-04-16T15:44:02.788Z,100824.40
2023-04-16T15:49:07.322Z,100824.40
2023-04-16T16:01:16.667Z,100837.40
2023-04-16T16:07:12.011Z,100836.40
2023-04-16T16:42:10.276Z,100861.40
2023-04-16T16:47:14.406Z,100865.00
2023-04-16T17:00:41.749Z,100870.60
2023-04-16T17:05:45.447Z,100875.80
2023-04-16T17:10:49.584Z,100870.20
2023-04-16T17:23:02.293Z,100883.60
2023-04-16T17:35:29.270Z,100889.00
2023-04-16T17:45:47.207Z,100901.20
2023-04-16T17:50:51.437Z,100899.20
2023-04-16T17:55:56.962Z,100904.20
2023-04-16T18:11:33.547Z,100929.40
2023-04-16T18:24:00.789Z,100936.40
2023-04-16T18:29:05.652Z,100934.80
2023-04-16T18:35:00.154Z,100938.00
2023-04-16T18:50:29.337Z,100948.20
2023-04-16T19:09:58.370Z,100949.40
2023-04-16T19:22:13.002Z,100956.20
2023-04-16T19:27:18.683Z,100949.40
2023-04-16T19:32:28.519Z,100948.60
2023-04-16T19:38:57.380Z,100946.20
2023-04-16T20:00:12.061Z,100946.60
2023-04-16T20:05:16.676Z,100943.40
2023-04-16T20:10:41.724Z,100941.00
2023-04-16T20:23:06.137Z,100941.60
2023-04-16T20:29:35.125Z,100941.60
2023-04-16T20:34:38.920Z,100943.20
2023-04-16T20:55:10.084Z,100960.00
2023-04-16T21:00:39.523Z,100957.60
2023-04-16T21:06:22.810Z,100958.40
2023-04-16T21:11:51.844Z,100965.80
2023-04-16T21:17:02.692Z,100969.60
2023-04-16T21:46:25.466Z,100975.80
2023-04-16T22:06:27.524Z,100981.60
2023-04-16T22:12:20.909Z,100979.80
2023-04-16T22:17:24.446Z,100981.60
2023-04-16T22:47:44.462Z,100977.20
2023-04-16T23:01:04.723Z,100987.80
2023-04-16T23:06:08.402Z,100988.40
2023-04-16T23:11:12.202Z,100989.20
2023-04-16T23:23:22.054Z,100987.20
2023-04-16T23:36:45.148Z,100997.80
2023-04-16T23:41:48.777Z,100997.20
